createdAt,value
2019-04-26T00:01:31.485Z,144.17
2019-04-26T00:03:59.189Z,145.27
2019-04-26T00:06:27.965Z,142.70
2019-04-26T00:09:02.426Z,132.60
2019-04-26T00:11:40.027Z,133.43
2019-04-26T00:14:27.769Z,140.40
2019-04-26T00:17:02.459Z,146.27
2019-04-26T00:19:31.438Z,151.93
2019-04-26T00:22:13.814Z,84.53
2019-04-26T00:24:42.711Z,142.30
2019-04-26T00:27:11.275Z,132.37
2019-04-26T00:29:39.130Z,148.93
2019-04-26T00:32:06.654Z,137.67
2019-04-26T00:34:34.351Z,152.33
2019-04-26T00:37:01.769Z,142.40
2019-04-26T00:39:29.257Z,146.93
2019-04-26T00:41:57.468Z,135.57
2019-04-26T00:44:25.518Z,138.17
2019-04-26T00:46:55.901Z,134.70
2019-04-26T00:49:23.931Z,138.80
2019-04-26T00:51:52.204Z,123.47
2019-04-26T00:54:20.411Z,140.17
2019-04-26T00:56:49.334Z,138.40
2019-04-26T00:59:18.336Z,162.27
2019-04-26T01:01:50.371Z,131.93
2019-04-26T01:04:18.797Z,144.90
2019-04-26T01:06:49.569Z,136.43
2019-04-26T01:09:18.031Z,143.03
2019-04-26T01:11:45.548Z,129.17
2019-04-26T01:14:12.871Z,135.83
2019-04-26T01:16:40.371Z,132.30
2019-04-26T01:19:10.075Z,138.43
2019-04-26T01:21:44.436Z,130.83
2019-04-26T01:24:13.724Z,148.17
2019-04-26T01:26:43.010Z,138.27
2019-04-26T01:29:13.265Z,144.63
2019-04-26T01:31:51.903Z,135.50
2019-04-26T01:34:20.348Z,150.20
2019-04-26T01:36:50.184Z,137.03
2019-04-26T01:39:20.938Z,165.93
2019-04-26T01:42:02.932Z,134.77
2019-04-26T01:45:14.130Z,148.23
2019-04-26T01:47:42.039Z,141.50
2019-04-26T01:50:11.531Z,138.40
2019-04-26T01:52:41.860Z,134.13
2019-04-26T01:55:09.765Z,150.53
2019-04-26T01:57:38.521Z,154.80
2019-04-26T02:00:27.545Z,155.83
2019-04-26T02:02:57.819Z,159.07
2019-04-26T02:05:26.136Z,160.63
2019-04-26T02:07:55.610Z,155.13
2019-04-26T02:10:25.221Z,161.30
2019-04-26T02:12:53.894Z,162.27
2019-04-26T02:15:25.594Z,163.93
2019-04-26T02:17:55.578Z,157.80
2019-04-26T02:21:16.714Z,164.87
2019-04-26T02:23:51.425Z,161.30
2019-04-26T02:26:32.593Z,158.80
2019-04-26T02:29:03.269Z,183.50
2019-04-26T02:31:31.563Z,168.27
2019-04-26T02:34:02.658Z,169.10
2019-04-26T02:36:55.382Z,167.77
2019-04-26T02:39:18.186Z,172.27
2019-04-26T02:41:47.007Z,165.83
2019-04-26T02:44:16.882Z,190.40
2019-04-26T02:47:02.267Z,158.97
2019-04-26T02:49:41.839Z,161.07
2019-04-26T02:52:39.576Z,143.83
2019-04-26T02:55:25.378Z,149.10
2019-04-26T02:57:53.737Z,150.90
2019-04-26T03:00:22.106Z,154.53
2019-04-26T03:03:04.863Z,142.13
2019-04-26T03:05:37.655Z,144.73
2019-04-26T03:08:17.217Z,140.40
2019-04-26T03:11:17.081Z,141.97
2019-04-26T03:14:04.845Z,147.07
2019-04-26T03:16:59.845Z,145.10
2019-04-26T03:19:43.199Z,153.07
2019-04-26T03:23:02.167Z,152.70
2019-04-26T03:25:44.543Z,144.00
2019-04-26T03:28:34.499Z,140.83
2019-04-26T03:31:49.675Z,134.97
2019-04-26T03:34:34.435Z,153.27
2019-04-26T03:37:27.244Z,141.00
2019-04-26T03:40:26.780Z,139.40
2019-04-26T03:43:38.499Z,138.37
2019-04-26T03:46:30.161Z,139.60
2019-04-26T03:49:47.445Z,162.07
2019-04-26T03:52:51.752Z,138.53
2019-04-26T03:56:25.830Z,143.80
2019-04-26T03:59:15.982Z,144.43
2019-04-26T04:01:58.591Z,146.73
2019-04-26T04:04:42.558Z,165.83
2019-04-26T04:07:13.832Z,142.37
2019-04-26T04:09:49.237Z,154.23
2019-04-26T04:13:01.357Z,142.03
2019-04-26T04:15:42.590Z,143.00
2019-04-26T04:18:19.290Z,143.50
2019-04-26T04:21:49.390Z,96.20
2019-04-26T04:24:51.745Z,166.20
2019-04-26T04:27:45.173Z,151.83
2019-04-26T04:31:03.149Z,146.90
2019-04-26T04:34:09.077Z,155.60
2019-04-26T04:36:50.678Z,144.43
2019-04-26T04:39:33.104Z,165.87
2019-04-26T04:42:32.912Z,148.90
2019-04-26T04:45:59.480Z,161.40
2019-04-26T04:48:51.316Z,161.80
2019-04-26T04:52:03.166Z,152.20
2019-04-26T04:54:42.668Z,160.53
2019-04-26T04:57:52.265Z,149.93
2019-04-26T05:01:31.867Z,149.27
2019-04-26T05:04:12.575Z,151.67
2019-04-26T05:07:37.558Z,149.00
2019-04-26T05:10:15.611Z,151.97
2019-04-26T05:12:57.204Z,148.30
2019-04-26T05:16:17.847Z,146.63
2019-04-26T05:19:26.136Z,151.30
2019-04-26T05:22:41.358Z,154.80
2019-04-26T05:26:27.700Z,164.80
2019-04-26T05:30:27.749Z,156.17
2019-04-26T05:33:50.348Z,155.57
2019-04-26T05:36:54.847Z,147.23
2019-04-26T05:40:06.931Z,170.33
2019-04-26T05:43:49.173Z,162.60
2019-04-26T05:47:24.513Z,162.40
2019-04-26T05:51:10.590Z,166.37
2019-04-26T05:54:26.179Z,161.90
2019-04-26T05:57:38.814Z,168.03
2019-04-26T06:00:44.352Z,162.20
2019-04-26T06:03:50.864Z,163.40
2019-04-26T06:06:44.307Z,151.47
2019-04-26T06:09:58.637Z,173.43
2019-04-26T06:12:47.378Z,153.77
2019-04-26T06:15:38.730Z,149.80
2019-04-26T06:18:38.623Z,150.23
2019-04-26T06:21:26.775Z,148.63
2019-04-26T06:24:37.558Z,159.00
2019-04-26T06:27:44.542Z,152.57
2019-04-26T06:30:19.291Z,155.47
2019-04-26T06:33:34.861Z,158.37
2019-04-26T06:36:08.453Z,148.43
2019-04-26T06:39:35.977Z,155.87
2019-04-26T06:42:58.779Z,153.10
2019-04-26T06:46:16.457Z,157.20
2019-04-26T06:49:35.838Z,148.00
2019-04-26T06:52:16.322Z,156.27
2019-04-26T06:55:14.726Z,156.97
2019-04-26T06:58:16.599Z,153.33
2019-04-26T07:01:13.409Z,160.50
2019-04-26T07:04:54.432Z,157.60
2019-04-26T07:08:37.796Z,146.70
2019-04-26T07:11:59.497Z,172.23
2019-04-26T07:15:28.499Z,167.37
2019-04-26T07:18:47.874Z,153.73
2019-04-26T07:25:28.618Z,158.10
2019-04-26T07:28:46.825Z,155.83
2019-04-26T07:31:34.261Z,157.90
2019-04-26T07:34:54.081Z,165.63
2019-04-26T07:38:17.577Z,164.90
2019-04-26T07:41:35.596Z,169.77
2019-04-26T07:44:59.068Z,164.20
2019-04-26T07:48:31.610Z,163.17
2019-04-26T07:51:52.260Z,155.13
2019-04-26T07:55:08.629Z,169.10
2019-04-26T07:58:28.420Z,165.43
2019-04-26T08:01:20.351Z,162.47
2019-04-26T08:04:01.480Z,159.73
2019-04-26T08:06:50.894Z,162.80
2019-04-26T08:09:27.383Z,183.47
2019-04-26T08:11:59.928Z,165.33
2019-04-26T08:15:13.500Z,180.87
2019-04-26T08:18:01.985Z,167.47
2019-04-26T08:20:48.111Z,180.03
2019-04-26T08:23:39.250Z,175.13
2019-04-26T08:25:58.595Z,173.00
2019-04-26T08:28:29.898Z,170.43
2019-04-26T08:30:59.276Z,165.40
2019-04-26T08:33:34.717Z,164.63
2019-04-26T08:36:06.053Z,178.77
2019-04-26T08:38:35.775Z,166.50
2019-04-26T08:41:04.935Z,162.50
2019-04-26T08:43:52.210Z,170.60
2019-04-26T08:46:45.458Z,174.27
2019-04-26T08:49:43.418Z,189.90
2019-04-26T08:52:15.067Z,176.17
2019-04-26T08:54:52.261Z,181.20
2019-04-26T08:57:21.173Z,183.00
2019-04-26T08:59:53.997Z,185.17
2019-04-26T09:02:44.286Z,177.50
2019-04-26T09:05:38.165Z,169.07
2019-04-26T09:08:08.627Z,165.63
2019-04-26T09:10:42.967Z,176.87
2019-04-26T09:13:12.559Z,169.73
2019-04-26T09:16:02.156Z,170.85
2019-04-26T09:18:42.317Z,181.67
2019-04-26T09:21:00.513Z,161.15
2019-04-26T09:24:02.265Z,171.40
2019-04-26T09:26:49.745Z,176.97
2019-04-26T09:29:36.736Z,192.55
2019-04-26T09:32:14.623Z,180.35
2019-04-26T09:34:42.879Z,197.57
2019-04-26T09:37:35.878Z,156.07
2019-04-26T09:40:10.517Z,174.55
2019-04-26T09:42:41.026Z,172.55
2019-04-26T09:45:18.868Z,179.82
2019-04-26T09:47:50.115Z,178.50
2019-04-26T09:50:23.607Z,188.93
2019-04-26T09:52:51.777Z,182.00
2019-04-26T09:55:20.598Z,172.20
2019-04-26T09:57:48.150Z,171.30
2019-04-26T10:00:21.468Z,188.10
2019-04-26T10:02:49.197Z,178.05
2019-04-26T10:05:17.569Z,171.22
2019-04-26T10:07:46.241Z,185.97
2019-04-26T10:10:23.075Z,177.62
2019-04-26T10:13:15.194Z,182.27
2019-04-26T10:15:58.082Z,176.78
2019-04-26T10:18:27.397Z,191.00
2019-04-26T10:20:56.441Z,189.52
2019-04-26T10:23:27.243Z,176.82
2019-04-26T10:25:54.788Z,182.00
2019-04-26T10:28:22.344Z,184.63
2019-04-26T10:30:50.425Z,181.07
2019-04-26T10:33:17.865Z,191.55
2019-04-26T10:35:45.491Z,175.75
2019-04-26T10:38:13.119Z,174.85
2019-04-26T10:40:40.630Z,196.80
2019-04-26T10:43:09.256Z,171.82
2019-04-26T10:45:36.900Z,185.63
2019-04-26T10:48:04.879Z,175.47
2019-04-26T10:50:34.317Z,186.70
2019-04-26T10:53:18.267Z,189.97
2019-04-26T10:56:02.031Z,187.25
2019-04-26T10:58:49.862Z,192.60
2019-04-26T11:01:18.144Z,189.43
2019-04-26T11:03:45.537Z,184.30
2019-04-26T11:06:13.675Z,183.30
2019-04-26T11:08:41.244Z,193.25
2019-04-26T11:11:08.963Z,180.60
2019-04-26T11:13:36.832Z,183.45
2019-04-26T11:16:07.053Z,188.18
2019-04-26T11:18:34.822Z,183.90
2019-04-26T11:21:02.212Z,184.43
2019-04-26T11:23:32.067Z,173.82
2019-04-26T11:26:01.584Z,183.93
2019-04-26T11:28:28.863Z,187.12
2019-04-26T11:30:57.506Z,176.65
2019-04-26T11:33:25.183Z,193.13
2019-04-26T11:35:52.669Z,175.82
2019-04-26T11:38:21.726Z,173.38
2019-04-26T11:40:58.444Z,193.80
2019-04-26T11:43:19.657Z,177.60
2019-04-26T11:45:49.371Z,193.10
2019-04-26T11:48:18.543Z,184.52
2019-04-26T11:50:48.223Z,172.07
2019-04-26T11:53:15.360Z,177.75
2019-04-26T11:55:42.820Z,184.43
2019-04-26T11:58:10.272Z,182.53
2019-04-26T12:00:42.849Z,165.85
2019-04-26T12:03:10.258Z,180.22
2019-04-26T12:05:44.668Z,175.25
2019-04-26T12:08:14.631Z,173.65
2019-04-26T12:10:44.472Z,182.50
2019-04-26T12:13:11.538Z,179.10
2019-04-26T12:15:43.212Z,180.67
2019-04-26T12:18:09.661Z,183.22
2019-04-26T12:20:37.598Z,178.30
2019-04-26T12:23:05.481Z,177.27
2019-04-26T12:25:33.014Z,171.62
2019-04-26T12:28:02.007Z,172.37
2019-04-26T12:30:34.909Z,170.20
2019-04-26T12:33:03.500Z,173.62
2019-04-26T12:35:30.928Z,162.12
2019-04-26T12:37:58.624Z,170.77
2019-04-26T12:40:27.210Z,186.77
2019-04-26T12:42:54.831Z,171.15
2019-04-26T12:45:47.456Z,177.97
2019-04-26T12:48:16.919Z,167.85
2019-04-26T12:50:45.531Z,167.37
2019-04-26T12:53:13.178Z,151.25
2019-04-26T12:55:40.747Z,177.22
2019-04-26T12:58:11.028Z,172.87
2019-04-26T13:00:52.908Z,176.93
2019-04-26T13:03:20.090Z,169.43
2019-04-26T13:05:42.291Z,175.38
2019-04-26T13:08:13.087Z,177.53
2019-04-26T13:10:57.479Z,173.45
2019-04-26T13:13:35.557Z,167.77
2019-04-26T13:16:28.536Z,164.52
2019-04-26T13:18:56.290Z,179.82
2019-04-26T13:21:24.126Z,165.10
2019-04-26T13:23:51.603Z,170.53
2019-04-26T13:26:19.258Z,173.75
2019-04-26T13:28:46.676Z,166.70
2019-04-26T13:31:14.169Z,174.43
2019-04-26T13:33:41.814Z,174.07
2019-04-26T13:36:10.002Z,179.63
2019-04-26T13:38:39.412Z,177.73
2019-04-26T13:41:06.953Z,160.30
2019-04-26T13:43:35.841Z,166.90
2019-04-26T13:46:19.247Z,150.60
2019-04-26T13:48:54.956Z,158.27
2019-04-26T13:51:24.235Z,187.13
2019-04-26T13:53:54.371Z,152.30
2019-04-26T13:56:21.499Z,175.23
2019-04-26T13:58:54.419Z,163.63
2019-04-26T14:01:20.653Z,165.90
2019-04-26T14:03:48.284Z,172.30
2019-04-26T14:06:16.045Z,162.80
2019-04-26T14:08:43.532Z,176.77
2019-04-26T14:11:11.066Z,167.47
2019-04-26T14:14:24.362Z,148.47
2019-04-26T14:16:55.536Z,161.53
2019-04-26T14:19:21.495Z,185.57
2019-04-26T14:21:49.013Z,161.20
2019-04-26T14:24:25.223Z,180.93
2019-04-26T14:27:00.628Z,165.53
2019-04-26T14:29:32.398Z,181.93
2019-04-26T14:31:58.741Z,157.10
2019-04-26T14:34:26.261Z,176.80
2019-04-26T14:37:05.825Z,174.87
2019-04-26T14:39:38.344Z,170.93
2019-04-26T14:41:57.079Z,168.77
2019-04-26T14:44:27.118Z,184.57
2019-04-26T14:46:56.834Z,170.63
2019-04-26T14:49:26.153Z,182.57
2019-04-26T14:51:56.205Z,173.33
2019-04-26T14:54:23.970Z,189.50
2019-04-26T14:56:53.530Z,173.80
2019-04-26T14:59:43.488Z,183.50
2019-04-26T15:02:50.044Z,169.40
2019-04-26T15:05:48.886Z,163.07
2019-04-26T15:08:16.617Z,167.80
2019-04-26T15:10:48.796Z,179.83
2019-04-26T15:13:19.455Z,179.40
2019-04-26T15:15:46.270Z,165.13
2019-04-26T15:18:14.079Z,180.33
2019-04-26T15:20:44.222Z,176.13
2019-04-26T15:23:13.273Z,167.00
2019-04-26T15:25:41.418Z,169.47
2019-04-26T15:28:14.435Z,170.50
2019-04-26T15:30:46.638Z,180.97
2019-04-26T15:33:14.037Z,169.90
2019-04-26T15:35:44.134Z,184.83
2019-04-26T15:38:11.925Z,154.10
2019-04-26T15:41:05.457Z,171.27
2019-04-26T15:44:04.189Z,163.17
2019-04-26T15:46:50.181Z,164.23
2019-04-26T15:49:34.076Z,173.30
2019-04-26T15:51:59.769Z,170.93
2019-04-26T15:54:29.236Z,190.70
2019-04-26T15:56:57.164Z,172.70
2019-04-26T15:59:25.786Z,178.63
2019-04-26T16:01:57.443Z,154.20
2019-04-26T16:04:25.680Z,188.17
2019-04-26T16:06:54.914Z,176.90
2019-04-26T16:09:23.106Z,188.00
2019-04-26T16:11:53.192Z,167.60
2019-04-26T16:14:24.950Z,194.30
2019-04-26T16:16:54.236Z,173.97
2019-04-26T16:19:26.701Z,180.83
2019-04-26T16:21:55.372Z,157.77
2019-04-26T16:24:27.848Z,184.77
2019-04-26T16:26:56.261Z,180.50
2019-04-26T16:32:34.581Z,167.17
2019-04-26T16:35:03.521Z,168.80
2019-04-26T16:37:33.072Z,167.77
2019-04-26T16:40:03.745Z,184.40
2019-04-26T16:42:35.450Z,160.77
2019-04-26T16:45:07.739Z,170.90
2019-04-26T16:47:42.960Z,159.10
2019-04-26T16:50:06.543Z,159.00
2019-04-26T16:52:42.331Z,162.53
2019-04-26T16:55:15.393Z,165.73
2019-04-26T16:57:43.758Z,159.03
2019-04-26T17:00:07.969Z,154.50
2019-04-26T17:00:41.012Z,176.20
2019-04-26T17:02:37.057Z,156.20
2019-04-26T17:05:19.166Z,164.70
2019-04-26T17:07:39.446Z,157.57
2019-04-26T17:10:20.412Z,158.33
2019-04-26T17:12:50.708Z,150.03
2019-04-26T17:15:17.416Z,160.07
2019-04-26T17:17:50.204Z,159.50
2019-04-26T17:20:17.115Z,158.40
2019-04-26T17:22:59.497Z,165.87
2019-04-26T17:25:42.565Z,160.37
2019-04-26T17:28:11.957Z,164.53
2019-04-26T17:30:43.034Z,165.50
2019-04-26T17:33:10.585Z,160.73
2019-04-26T17:35:41.056Z,161.43
2019-04-26T17:38:11.277Z,161.93
2019-04-26T17:40:38.236Z,166.13
2019-04-26T17:43:09.609Z,175.20
2019-04-26T17:45:36.247Z,179.30
2019-04-26T17:48:06.504Z,166.77
2019-04-26T17:50:38.881Z,165.27
2019-04-26T17:53:10.681Z,164.83
2019-04-26T17:55:41.335Z,163.10
2019-04-26T17:58:14.400Z,161.27
2019-04-26T18:00:45.934Z,159.07
2019-04-26T18:03:13.200Z,151.03
2019-04-26T18:05:50.062Z,168.43
2019-04-26T18:08:31.432Z,168.80
2019-04-26T18:10:41.404Z,159.30
2019-04-26T18:13:16.684Z,153.03
2019-04-26T18:15:48.348Z,162.30
2019-04-26T18:18:36.943Z,156.50
2019-04-26T18:21:24.393Z,159.20
2019-04-26T18:23:57.004Z,171.00
2019-04-26T18:26:23.011Z,160.17
2019-04-26T18:28:54.920Z,157.63
2019-04-26T18:31:23.702Z,168.07
2019-04-26T18:33:56.306Z,176.10
2019-04-26T18:36:20.816Z,153.70
2019-04-26T18:38:50.048Z,173.22
2019-04-26T18:41:17.832Z,173.77
2019-04-26T18:43:45.633Z,170.33
2019-04-26T18:46:18.426Z,154.30
2019-04-26T18:48:46.123Z,151.80
2019-04-26T18:51:13.434Z,153.93
2019-04-26T18:54:02.771Z,151.30
2019-04-26T18:56:39.626Z,150.47
2019-04-26T18:59:07.382Z,171.33
2019-04-26T19:01:41.043Z,158.40
2019-04-26T19:04:12.538Z,157.80
2019-04-26T19:06:38.047Z,161.00
2019-04-26T19:09:07.859Z,165.63
2019-04-26T19:11:42.095Z,151.80
2019-04-26T19:14:19.687Z,158.07
2019-04-26T19:17:03.463Z,153.30
2019-04-26T19:19:38.915Z,172.73
2019-04-26T19:22:09.547Z,162.83
2019-04-26T19:24:38.722Z,161.97
2019-04-26T19:27:07.497Z,156.17
2019-04-26T19:29:36.246Z,176.23
2019-04-26T19:32:04.834Z,147.30
2019-04-26T19:34:32.442Z,168.00
2019-04-26T19:37:01.508Z,169.50
2019-04-26T19:39:33.240Z,160.50
2019-04-26T19:41:59.424Z,168.87
2019-04-26T19:44:27.275Z,166.90
2019-04-26T19:47:26.428Z,182.70
2019-04-26T19:50:09.593Z,168.37
2019-04-26T19:52:56.217Z,159.70
2019-04-26T19:55:47.428Z,157.87
2019-04-26T19:58:20.020Z,154.23
2019-04-26T20:00:46.715Z,157.90
2019-04-26T20:03:16.894Z,174.93
2019-04-26T20:05:44.728Z,169.57
2019-04-26T20:08:12.857Z,167.87
2019-04-26T20:10:43.251Z,194.07
2019-04-26T20:13:15.144Z,161.23
2019-04-26T20:15:42.231Z,162.87
2019-04-26T20:18:10.022Z,162.13
2019-04-26T20:20:37.981Z,168.30
2019-04-26T20:23:07.825Z,174.80
2019-04-26T20:25:35.191Z,162.77
2019-04-26T20:28:03.211Z,157.70
2019-04-26T20:30:57.954Z,168.43
2019-04-26T20:33:26.609Z,166.13
2019-04-26T20:35:57.475Z,166.63
2019-04-26T20:38:25.822Z,160.90
2019-04-26T20:40:53.638Z,170.70
2019-04-26T20:43:26.395Z,160.70
2019-04-26T20:46:10.525Z,162.87
2019-04-26T20:48:25.689Z,159.03
2019-04-26T20:50:52.037Z,164.13
2019-04-26T20:53:21.656Z,151.93
2019-04-26T20:55:49.390Z,157.90
2019-04-26T20:58:16.936Z,174.50
2019-04-26T21:00:54.166Z,160.13
2019-04-26T21:03:22.788Z,166.20
2019-04-26T21:05:46.439Z,162.33
2019-04-26T21:08:13.046Z,157.40
2019-04-26T21:10:41.813Z,170.20
2019-04-26T21:13:09.492Z,167.47
2019-04-26T21:15:36.961Z,163.23
2019-04-26T21:18:04.517Z,159.63
2019-04-26T21:20:36.236Z,164.20
2019-04-26T21:23:02.619Z,162.70
2019-04-26T21:25:38.822Z,163.20
2019-04-26T21:28:38.138Z,156.47
2019-04-26T21:31:12.105Z,163.80
2019-04-26T21:33:50.966Z,155.80
2019-04-26T21:36:54.946Z,162.00
2019-04-26T21:39:51.123Z,182.77
2019-04-26T21:42:21.071Z,165.27
2019-04-26T21:44:52.646Z,177.47
2019-04-26T21:47:19.935Z,160.40
2019-04-26T21:49:47.533Z,172.70
2019-04-26T21:52:15.005Z,168.97
2019-04-26T21:54:43.222Z,163.37
2019-04-26T21:57:10.842Z,156.50
2019-04-26T21:59:42.682Z,166.90
2019-04-26T22:02:14.023Z,160.40
2019-04-26T22:04:41.095Z,172.30
2019-04-26T22:07:08.857Z,154.63
2019-04-26T22:10:00.123Z,162.57
2019-04-26T22:12:31.301Z,156.73
2019-04-26T22:15:18.004Z,158.87
2019-04-26T22:17:52.948Z,162.13
2019-04-26T22:20:50.926Z,154.93
2019-04-26T22:23:27.170Z,159.07
2019-04-26T22:25:56.017Z,157.50
2019-04-26T22:28:24.471Z,161.43
2019-04-26T22:30:53.502Z,157.57
2019-04-26T22:33:27.392Z,167.63
2019-04-26T22:35:58.647Z,166.27
2019-04-26T22:38:29.387Z,151.30
2019-04-26T22:40:56.860Z,156.07
2019-04-26T22:43:58.940Z,153.50
2019-04-26T22:46:48.800Z,156.07
2019-04-26T22:49:15.236Z,167.93
2019-04-26T22:51:43.533Z,161.90
2019-04-26T22:54:11.291Z,178.07
2019-04-26T22:56:38.655Z,159.47
2019-04-26T22:59:08.028Z,163.07
2019-04-26T23:01:39.149Z,160.93
2019-04-26T23:04:06.048Z,169.30
2019-04-26T23:06:33.917Z,163.77
2019-04-26T23:09:01.641Z,165.40
2019-04-26T23:11:31.140Z,153.53
2019-04-26T23:14:25.459Z,161.43
2019-04-26T23:17:18.957Z,162.00
2019-04-26T23:20:09.580Z,172.10
2019-04-26T23:22:36.949Z,153.73
2019-04-26T23:25:04.798Z,164.07
2019-04-26T23:27:33.435Z,165.77
2019-04-26T23:30:01.096Z,172.30
2019-04-26T23:32:28.662Z,167.80
2019-04-26T23:34:58.248Z,166.63
2019-04-26T23:37:27.615Z,152.70
2019-04-26T23:39:55.444Z,162.20
2019-04-26T23:42:24.990Z,167.17
2019-04-26T23:44:54.183Z,167.87
2019-04-26T23:47:23.679Z,155.53
2019-04-26T23:49:53.949Z,163.73
2019-04-26T23:52:23.030Z,161.40
2019-04-26T23:54:50.769Z,164.13
2019-04-26T23:57:18.570Z,172.73
2019-04-26T23:59:46.144Z,173.93
